createdAt,value
2019-05-07T05:50:36.865Z,99.99
2019-05-07T05:51:36.826Z,99.99
2019-05-07T05:52:36.813Z,99.99
2019-05-07T05:53:36.774Z,99.99
2019-05-07T05:54:36.752Z,99.99
2019-05-07T05:55:36.726Z,99.99
2019-05-07T05:56:36.702Z,99.99
2019-05-07T05:57:36.692Z,99.99
2019-05-07T05:58:36.655Z,99.99
2019-05-07T05:59:47.901Z,99.99
2019-05-07T06:00:36.607Z,99.99
2019-05-07T06:01:36.589Z,99.99
2019-05-07T06:02:36.579Z,99.99
2019-05-07T06:03:36.539Z,99.99
2019-05-07T06:04:36.521Z,99.99
2019-05-07T06:05:36.496Z,99.99
2019-05-07T06:06:36.474Z,99.99
2019-05-07T06:07:36.493Z,99.99
2019-05-07T06:08:36.430Z,99.99
2019-05-07T06:09:36.406Z,99.99
2019-05-07T06:19:39.819Z,99.99
2019-05-07T06:20:39.778Z,99.99
2019-05-07T06:21:41.797Z,99.99
2019-05-07T06:22:39.731Z,99.99
2019-05-07T06:23:41.483Z,99.99
2019-05-07T06:24:39.698Z,99.99
2019-05-07T06:25:39.663Z,99.99
2019-05-07T06:26:39.641Z,99.99
2019-05-07T06:27:41.698Z,99.99
2019-05-07T06:28:39.597Z,99.99
2019-05-07T06:29:39.590Z,99.99
2019-05-07T06:37:28.697Z,99.99
2019-05-07T06:38:28.661Z,99.99
2019-05-07T06:39:28.640Z,99.99
2019-05-07T06:40:29.450Z,99.99
2019-05-07T06:41:28.595Z,99.99
2019-05-07T06:42:28.575Z,99.99
2019-05-07T06:43:28.553Z,99.99
2019-05-07T06:44:28.529Z,99.99
2019-05-07T06:45:28.523Z,99.99
2019-05-07T06:46:28.491Z,99.99
2019-05-07T06:47:28.466Z,99.99
2019-05-07T06:48:41.402Z,99.99
2019-05-07T06:49:28.425Z,99.99
2019-05-07T06:50:28.425Z,99.99
2019-05-07T06:51:28.382Z,99.99
2019-05-07T06:52:28.364Z,99.99
2019-05-07T06:53:28.344Z,99.99
2019-05-07T06:54:28.320Z,99.99
2019-05-07T06:55:28.299Z,99.99
2019-05-07T06:56:28.293Z,99.99
2019-05-07T06:57:28.257Z,99.99
2019-05-07T07:05:02.832Z,99.99
2019-05-07T07:06:02.718Z,99.99
2019-05-07T07:07:02.020Z,99.99
2019-05-07T07:08:02.368Z,99.99
2019-05-07T07:09:01.958Z,99.99
2019-05-07T07:10:02.653Z,99.99
2019-05-07T07:11:02.624Z,99.99
2019-05-07T07:12:02.198Z,99.99
2019-05-07T07:17:22.432Z,99.99
2019-05-07T07:18:23.103Z,99.99
2019-05-07T07:19:23.288Z,99.99
2019-05-07T07:20:22.192Z,99.99
2019-05-07T07:21:22.168Z,99.99
2019-05-07T07:22:22.336Z,99.99
2019-05-07T07:23:22.764Z,99.99
2019-05-07T07:24:22.330Z,99.99
2019-05-07T07:25:22.951Z,99.99
2019-05-07T07:26:22.240Z,99.99
2019-05-07T07:27:22.768Z,99.99
2019-05-07T07:28:22.116Z,99.99
2019-05-07T07:29:22.070Z,99.99
2019-05-07T07:30:21.988Z,99.99
2019-05-07T07:31:24.329Z,99.99
2019-05-07T07:32:22.144Z,99.99
2019-05-07T07:33:22.483Z,99.99
2019-05-07T07:34:22.777Z,99.99
2019-05-07T07:35:22.562Z,99.99
2019-05-07T07:36:22.547Z,99.99
2019-05-07T07:37:22.920Z,99.99
2019-05-07T07:38:22.281Z,99.99
2019-05-07T07:39:22.025Z,99.99
2019-05-07T07:40:22.408Z,99.99
2019-05-07T07:41:22.302Z,99.99
2019-05-07T07:42:22.911Z,99.99
2019-05-07T07:43:21.913Z,99.99
2019-05-07T07:44:22.408Z,99.99
2019-05-07T07:45:22.990Z,99.99
2019-05-07T07:46:22.216Z,99.99
2019-05-07T07:47:22.321Z,99.99
2019-05-07T07:48:24.500Z,99.99
2019-05-07T07:49:22.245Z,99.99
2019-05-07T07:50:22.428Z,99.99
2019-05-07T07:51:37.321Z,99.99
2019-05-07T07:52:22.985Z,99.99
2019-05-07T07:53:22.715Z,99.99
2019-05-07T07:54:22.683Z,99.99
2019-05-07T07:55:22.270Z,99.99
2019-05-07T07:56:23.056Z,99.99
2019-05-07T07:57:21.846Z,99.75
2019-05-07T07:58:22.157Z,99.95
2019-05-07T07:59:22.176Z,99.99
2019-05-07T08:00:23.289Z,99.99
2019-05-07T08:01:22.584Z,99.99
2019-05-07T08:02:22.974Z,99.99
2019-05-07T08:03:22.554Z,98.99
2019-05-07T08:04:22.875Z,97.66
2019-05-07T08:05:21.912Z,97.75
2019-05-07T08:06:22.553Z,98.27
2019-05-07T08:07:22.893Z,99.99
2019-05-07T08:08:21.933Z,99.99
2019-05-07T08:09:23.954Z,98.85
2019-05-07T08:10:22.132Z,99.99
2019-05-07T08:11:21.977Z,99.99
2019-05-07T08:12:22.144Z,99.99
2019-05-07T08:13:22.928Z,99.27
2019-05-07T08:14:21.916Z,99.85
2019-05-07T08:15:24.497Z,99.99
2019-05-07T08:16:22.261Z,99.27
2019-05-07T08:17:22.410Z,99.99
2019-05-07T08:18:22.246Z,99.90
2019-05-07T08:19:24.402Z,98.66
2019-05-07T08:20:22.224Z,95.70
2019-05-07T08:21:22.713Z,94.22
2019-05-07T08:22:22.553Z,96.37
2019-05-07T08:23:22.622Z,97.61
2019-05-07T08:24:22.583Z,97.13
2019-05-07T08:25:21.827Z,94.93
2019-05-07T08:26:21.939Z,94.03
2019-05-07T08:27:22.252Z,95.56
2019-05-07T08:28:23.222Z,92.21
2019-05-07T08:29:22.486Z,89.45
2019-05-07T08:30:22.245Z,90.02
2019-05-07T08:31:22.575Z,90.45
2019-05-07T08:32:22.270Z,91.31
2019-05-07T08:33:22.410Z,92.07
2019-05-07T08:34:21.830Z,93.74
2019-05-07T08:35:21.970Z,94.03
2019-05-07T08:36:22.595Z,94.32
2019-05-07T08:37:24.227Z,95.27
2019-05-07T08:38:21.897Z,93.88
2019-05-07T08:39:22.322Z,94.84
2019-05-07T08:40:22.051Z,93.60
2019-05-07T08:41:22.469Z,93.17
2019-05-07T08:42:22.737Z,89.35
2019-05-07T08:43:21.884Z,88.83
2019-05-07T08:44:22.320Z,89.92
2019-05-07T08:45:24.687Z,89.73
2019-05-07T08:46:22.325Z,89.54
2019-05-07T08:47:22.696Z,88.92
2019-05-07T08:48:21.671Z,85.77
2019-05-07T08:49:33.230Z,83.38
2019-05-07T08:50:22.239Z,81.77
2019-05-07T08:51:22.033Z,82.34
2019-05-07T08:52:22.679Z,83.29
2019-05-07T08:53:22.350Z,85.11
2019-05-07T08:54:22.599Z,85.91
2019-05-07T08:55:21.773Z,87.92
2019-05-07T08:56:22.347Z,86.87
2019-05-07T08:57:22.593Z,88.87
2019-05-07T08:58:22.382Z,88.40
2019-05-07T08:59:22.282Z,84.25
2019-05-07T09:00:22.369Z,84.82
2019-05-07T09:01:21.824Z,86.54
2019-05-07T09:02:22.244Z,86.01
2019-05-07T09:03:22.453Z,82.57
2019-05-07T09:04:21.986Z,83.24
2019-05-07T09:05:22.094Z,82.95
2019-05-07T09:06:22.029Z,83.95
2019-05-07T09:07:21.839Z,81.56
2019-05-07T09:08:21.794Z,79.94
2019-05-07T09:09:22.238Z,79.22
2019-05-07T09:10:21.809Z,79.08
2019-05-07T09:11:20.182Z,79.17
2019-05-07T09:12:20.167Z,80.41
2019-05-07T09:13:20.149Z,79.27
2019-05-07T09:14:22.850Z,77.94
2019-05-07T09:15:20.131Z,76.50
2019-05-07T09:16:20.101Z,77.65
2019-05-07T09:17:20.084Z,75.89
2019-05-07T09:18:20.066Z,73.88
2019-05-07T09:19:21.684Z,74.88
2019-05-07T09:20:20.043Z,75.35
2019-05-07T09:21:20.018Z,76.69
2019-05-07T09:22:20.004Z,77.26
2019-05-07T09:23:19.985Z,75.45
2019-05-07T09:24:19.970Z,77.55
2019-05-07T09:25:22.134Z,77.65
2019-05-07T09:26:22.011Z,78.03
2019-05-07T09:27:22.152Z,77.36
2019-05-07T09:28:21.785Z,78.26
2019-05-07T09:29:22.067Z,75.64
2019-05-07T09:30:21.895Z,76.03
2019-05-07T09:31:19.854Z,75.26
2019-05-07T09:32:19.989Z,75.64
2019-05-07T09:33:19.826Z,75.74
2019-05-07T09:34:22.153Z,76.21
2019-05-07T09:35:21.569Z,75.16
2019-05-07T09:36:19.772Z,74.98
2019-05-07T09:37:19.758Z,76.21
2019-05-07T09:38:19.740Z,76.98
2019-05-07T09:39:19.723Z,76.92
2019-05-07T09:40:21.625Z,75.35
2019-05-07T09:41:19.690Z,74.34
2019-05-07T09:42:19.675Z,73.35
2019-05-07T09:43:21.898Z,74.40
2019-05-07T09:44:19.650Z,75.59
2019-05-07T09:45:19.653Z,74.82
2019-05-07T09:46:20.717Z,76.25
2019-05-07T09:47:21.761Z,75.78
2019-05-07T09:48:19.581Z,75.52
2019-05-07T09:49:19.561Z,74.28
2019-05-07T09:50:21.878Z,75.05
2019-05-07T09:51:19.529Z,76.77
2019-05-07T09:52:19.514Z,75.81
2019-05-07T09:53:19.495Z,73.99
2019-05-07T09:54:19.481Z,73.94
2019-05-07T09:55:19.482Z,73.84
2019-05-07T09:56:19.451Z,73.17
2019-05-07T09:57:30.204Z,73.04
2019-05-07T09:58:33.144Z,74.70
2019-05-07T09:59:19.403Z,76.62
2019-05-07T10:00:19.407Z,75.47
2019-05-07T10:01:19.373Z,76.39
2019-05-07T10:02:19.354Z,76.67
2019-05-07T10:03:19.340Z,78.81
2019-05-07T10:04:19.325Z,75.37
2019-05-07T10:05:19.325Z,76.67
2019-05-07T10:06:19.294Z,76.48
2019-05-07T10:07:19.281Z,78.01
2019-05-07T10:08:19.264Z,76.77
2019-05-07T10:09:19.247Z,76.86
2019-05-07T10:10:19.248Z,76.86
2019-05-07T10:11:19.220Z,77.82
2019-05-07T10:12:19.202Z,77.15
2019-05-07T10:13:19.184Z,76.62
2019-05-07T10:14:19.168Z,75.18
2019-05-07T10:15:19.169Z,73.80
2019-05-07T10:16:19.137Z,74.95
2019-05-07T10:17:19.122Z,74.90
2019-05-07T10:18:19.106Z,73.71
2019-05-07T10:19:19.093Z,73.46
2019-05-07T10:20:22.391Z,72.02
2019-05-07T10:21:19.060Z,72.12
2019-05-07T10:22:19.046Z,73.43
2019-05-07T10:23:19.030Z,75.05
2019-05-07T10:24:19.018Z,75.71
2019-05-07T10:25:19.013Z,75.71
2019-05-07T10:26:18.991Z,74.95
2019-05-07T10:27:18.971Z,74.48
2019-05-07T10:28:18.953Z,72.88
2019-05-07T10:29:18.937Z,71.83
2019-05-07T10:30:18.933Z,71.36
2019-05-07T10:31:18.904Z,70.84
2019-05-07T10:32:18.889Z,71.22
2019-05-07T10:33:18.878Z,72.85
2019-05-07T10:34:18.858Z,72.94
2019-05-07T10:35:18.853Z,72.75
2019-05-07T10:36:18.830Z,73.86
2019-05-07T10:37:18.809Z,74.34
2019-05-07T10:38:18.795Z,75.01
2019-05-07T10:39:18.778Z,76.06
2019-05-07T10:40:18.776Z,76.64
2019-05-07T10:41:18.744Z,74.44
2019-05-07T10:42:18.729Z,72.39
2019-05-07T10:43:18.716Z,71.06
2019-05-07T10:44:18.701Z,71.06
2019-05-07T10:45:18.698Z,71.82
2019-05-07T10:46:18.667Z,70.54
2019-05-07T10:47:18.653Z,72.68
2019-05-07T10:48:18.635Z,71.25
2019-05-07T10:49:18.635Z,71.15
2019-05-07T10:50:32.231Z,71.25
2019-05-07T10:51:18.586Z,71.34
2019-05-07T10:52:18.575Z,71.72
2019-05-07T10:53:18.554Z,72.33
2019-05-07T10:54:18.536Z,71.89
2019-05-07T10:55:18.539Z,71.22
2019-05-07T10:56:18.505Z,69.89
2019-05-07T10:57:18.488Z,67.49
2019-05-07T10:58:18.473Z,66.54
2019-05-07T10:59:18.455Z,66.83
2019-05-07T11:00:18.453Z,67.14
2019-05-07T11:01:18.425Z,68.20
2019-05-07T11:02:18.420Z,68.74
2019-05-07T11:03:18.392Z,70.40
2019-05-07T11:04:18.376Z,69.92
2019-05-07T11:05:18.377Z,69.64
2019-05-07T11:06:18.345Z,70.34
2019-05-07T11:07:18.330Z,69.67
2019-05-07T11:08:18.314Z,68.68
2019-05-07T11:09:18.296Z,68.29
2019-05-07T11:10:18.296Z,69.64
2019-05-07T11:11:18.267Z,67.97
2019-05-07T11:12:18.250Z,68.07
2019-05-07T11:13:18.236Z,67.78
2019-05-07T11:14:18.219Z,69.47
2019-05-07T11:15:18.222Z,70.90
2019-05-07T11:16:18.188Z,70.81
2019-05-07T11:17:18.174Z,73.61
2019-05-07T11:18:18.156Z,72.33
2019-05-07T11:19:18.967Z,71.09
2019-05-07T11:20:18.126Z,70.90
2019-05-07T11:21:18.124Z,71.76
2019-05-07T11:22:18.095Z,71.19
2019-05-07T11:23:18.080Z,72.24
2019-05-07T11:24:18.063Z,71.86
2019-05-07T11:25:18.048Z,72.97
2019-05-07T11:26:18.048Z,74.05
2019-05-07T11:27:18.015Z,73.00
2019-05-07T11:28:18.006Z,72.91
2019-05-07T11:29:18.981Z,72.62
2019-05-07T11:30:17.967Z,72.01
2019-05-07T11:31:17.951Z,70.87
2019-05-07T11:32:17.952Z,71.25
2019-05-07T11:33:17.918Z,73.73
2019-05-07T11:34:17.906Z,72.30
2019-05-07T11:35:17.885Z,72.39
2019-05-07T11:36:17.869Z,72.30
2019-05-07T11:37:17.875Z,72.20
2019-05-07T11:38:21.484Z,72.87
2019-05-07T11:39:17.823Z,74.59
2019-05-07T11:40:19.990Z,72.68
2019-05-07T11:41:17.787Z,74.02
2019-05-07T11:42:17.808Z,73.07
2019-05-07T11:43:17.756Z,74.74
2019-05-07T11:44:17.742Z,75.03
2019-05-07T11:45:17.730Z,74.17
2019-05-07T11:46:17.708Z,74.49
2019-05-07T11:47:17.690Z,74.88
2019-05-07T11:48:17.687Z,74.30
2019-05-07T11:49:17.655Z,74.78
2019-05-07T11:50:17.639Z,75.35
2019-05-07T11:51:17.624Z,75.35
2019-05-07T11:52:17.606Z,72.68
2019-05-07T11:53:17.604Z,72.87
2019-05-07T11:54:17.570Z,72.01
2019-05-07T11:55:17.558Z,72.11
2019-05-07T11:56:17.540Z,71.25
2019-05-07T11:57:17.524Z,71.67
2019-05-07T11:58:17.521Z,72.72
2019-05-07T11:59:17.496Z,71.28
2019-05-07T12:00:17.472Z,71.42
2019-05-07T12:01:17.457Z,72.66
2019-05-07T12:02:17.438Z,71.42
2019-05-07T12:03:17.439Z,69.02
2019-05-07T12:04:17.410Z,70.17
2019-05-07T12:05:17.387Z,72.18
2019-05-07T12:06:17.376Z,70.59
2019-05-07T12:07:17.356Z,68.90
2019-05-07T12:08:17.384Z,66.13
2019-05-07T12:09:17.326Z,65.55
2019-05-07T12:10:17.308Z,66.41
2019-05-07T12:11:17.293Z,66.32
2019-05-07T12:12:17.276Z,66.74
2019-05-07T12:13:17.258Z,66.48
2019-05-07T12:14:28.121Z,64.56
2019-05-07T12:15:17.228Z,64.09
2019-05-07T12:16:17.215Z,66.42
2019-05-07T12:17:17.198Z,63.19
2019-05-07T12:18:27.504Z,60.63
2019-05-07T12:19:17.217Z,60.63
2019-05-07T12:20:17.150Z,59.58
2019-05-07T12:21:20.972Z,59.09
2019-05-07T12:22:17.122Z,59.19
2019-05-07T12:23:17.105Z,59.09
2019-05-07T12:24:17.090Z,59.48
2019-05-07T12:25:17.095Z,59.13
2019-05-07T12:26:17.063Z,60.25
2019-05-07T12:27:17.048Z,61.11
2019-05-07T12:28:17.034Z,62.90
2019-05-07T12:29:17.018Z,62.96
2019-05-07T12:30:17.026Z,64.09
2019-05-07T12:31:16.989Z,64.47
2019-05-07T12:32:16.974Z,63.99
2019-05-07T12:33:16.959Z,63.48
2019-05-07T12:34:16.947Z,63.86
2019-05-07T12:35:16.936Z,64.53
2019-05-07T12:36:16.939Z,64.25
2019-05-07T12:37:16.900Z,63.03
2019-05-07T12:38:16.887Z,62.93
2019-05-07T12:39:16.880Z,60.93
2019-05-07T12:40:16.858Z,59.77
2019-05-07T12:41:16.856Z,58.88
2019-05-07T12:42:16.829Z,59.81
2019-05-07T12:43:16.816Z,61.34
2019-05-07T12:44:16.801Z,61.63
2019-05-07T12:45:16.784Z,62.04
2019-05-07T12:46:16.786Z,61.76
2019-05-07T12:47:16.755Z,59.62
2019-05-07T12:48:16.741Z,60.22
2019-05-07T12:49:16.726Z,59.75
2019-05-07T12:50:16.725Z,58.88
2019-05-07T12:51:16.719Z,58.22
2019-05-07T12:52:16.685Z,58.12
2019-05-07T12:53:16.672Z,58.12
2019-05-07T12:54:16.655Z,59.30
2019-05-07T12:55:16.640Z,58.44
2019-05-07T12:56:16.625Z,59.87
2019-05-07T12:57:16.623Z,57.38
2019-05-07T12:58:16.596Z,58.34
2019-05-07T12:59:16.581Z,58.62
2019-05-07T13:00:16.568Z,57.95
2019-05-07T13:01:16.553Z,57.57
2019-05-07T13:02:33.263Z,58.27
2019-05-07T13:03:16.523Z,56.81
2019-05-07T13:04:16.510Z,57.06
2019-05-07T13:05:16.495Z,57.26
2019-05-07T13:06:16.492Z,57.32
2019-05-07T13:07:16.488Z,56.37
2019-05-07T13:08:16.452Z,58.44
2019-05-07T13:09:16.436Z,58.92
2019-05-07T13:10:16.422Z,57.65
2019-05-07T13:11:16.426Z,58.83
2019-05-07T13:12:16.393Z,59.97
2019-05-07T13:13:16.403Z,58.73
2019-05-07T13:14:16.367Z,58.34
2019-05-07T13:15:25.109Z,59.20
2019-05-07T13:16:16.338Z,58.47
2019-05-07T13:17:16.321Z,57.54
2019-05-07T13:18:16.327Z,59.27
2019-05-07T13:19:16.295Z,58.79
2019-05-07T13:20:16.279Z,58.02
2019-05-07T13:21:16.262Z,58.34
2019-05-07T13:22:16.249Z,57.95
2019-05-07T13:23:16.254Z,57.67
2019-05-07T13:24:16.224Z,57.35
2019-05-07T13:25:16.206Z,58.56
2019-05-07T13:26:16.189Z,58.95
2019-05-07T13:27:16.188Z,57.80
2019-05-07T13:28:16.181Z,57.58
2019-05-07T13:29:16.146Z,58.25
2019-05-07T13:30:16.143Z,60.38
2019-05-07T13:31:16.120Z,58.95
2019-05-07T13:32:16.105Z,58.56
2019-05-07T13:33:16.086Z,59.91
2019-05-07T13:34:16.089Z,59.62
2019-05-07T13:35:16.058Z,58.95
2019-05-07T13:36:16.043Z,60.19
2019-05-07T13:37:16.029Z,60.13
2019-05-07T13:38:16.013Z,59.08
2019-05-07T13:39:16.015Z,58.79
2019-05-07T13:40:15.986Z,60.10
2019-05-07T13:41:15.973Z,59.91
2019-05-07T13:42:15.954Z,58.54
2019-05-07T13:43:15.938Z,60.23
2019-05-07T13:44:15.941Z,59.81
2019-05-07T13:45:15.909Z,61.66
2019-05-07T13:46:15.893Z,60.58
2019-05-07T13:47:15.878Z,60.87
2019-05-07T13:48:15.863Z,59.81
2019-05-07T13:49:15.863Z,59.66
2019-05-07T13:50:15.833Z,60.04
2019-05-07T13:51:15.826Z,59.56
2019-05-07T13:52:15.802Z,59.30
2019-05-07T13:53:15.789Z,59.23
2019-05-07T13:54:15.770Z,60.19
2019-05-07T13:55:15.771Z,60.03
2019-05-07T13:56:15.744Z,60.99
2019-05-07T13:57:15.738Z,62.01
2019-05-07T13:58:15.711Z,60.48
2019-05-07T13:59:15.696Z,61.15
2019-05-07T14:00:15.719Z,60.10
2019-05-07T14:01:15.666Z,60.38
2019-05-07T14:02:15.769Z,60.10
2019-05-07T14:03:15.636Z,60.00
2019-05-07T14:04:15.623Z,61.15
2019-05-07T14:05:15.604Z,61.05
2019-05-07T14:06:16.667Z,60.48
2019-05-07T14:07:15.575Z,59.81
2019-05-07T14:08:15.559Z,59.91
2019-05-07T14:09:15.545Z,57.51
2019-05-07T14:10:15.528Z,58.79
2019-05-07T14:11:15.514Z,59.94
2019-05-07T14:12:15.513Z,57.73
2019-05-07T14:13:17.537Z,57.73
2019-05-07T14:14:15.465Z,58.98
2019-05-07T14:15:15.455Z,56.94
2019-05-07T14:16:15.435Z,57.32
2019-05-07T14:17:15.434Z,56.94
2019-05-07T14:18:15.404Z,56.94
2019-05-07T14:19:15.389Z,56.72
2019-05-07T14:20:15.375Z,56.43
2019-05-07T14:21:15.359Z,57.20
2019-05-07T14:22:19.013Z,58.63
2019-05-07T14:23:15.330Z,58.28
2019-05-07T14:24:15.315Z,57.23
2019-05-07T14:25:15.302Z,56.27
2019-05-07T14:26:15.302Z,57.61
2019-05-07T14:27:15.283Z,58.98
2019-05-07T14:28:15.253Z,58.50
2019-05-07T14:29:15.259Z,56.84
2019-05-07T14:30:15.222Z,57.32
2019-05-07T14:31:15.219Z,58.47
2019-05-07T14:32:15.211Z,60.19
2019-05-07T14:33:15.187Z,59.27
2019-05-07T14:34:15.163Z,58.62
2019-05-07T14:35:15.146Z,58.53
2019-05-07T14:36:15.134Z,57.79
2019-05-07T14:37:15.129Z,57.43
2019-05-07T14:38:15.104Z,56.86
2019-05-07T14:39:15.087Z,54.13
2019-05-07T14:40:15.072Z,52.89
2019-05-07T14:41:15.057Z,52.72
2019-05-07T14:42:15.059Z,52.68
2019-05-07T14:43:15.029Z,50.30
2019-05-07T14:44:15.017Z,49.60
2019-05-07T14:45:15.001Z,51.79
2019-05-07T14:46:14.988Z,51.21
2019-05-07T14:47:14.996Z,51.37
2019-05-07T14:48:14.965Z,51.16
2019-05-07T14:49:14.949Z,52.76
2019-05-07T14:50:14.935Z,55.04
2019-05-07T14:51:14.923Z,54.82
2019-05-07T14:52:28.115Z,54.75
2019-05-07T14:53:14.908Z,53.23
2019-05-07T14:54:14.884Z,50.85
2019-05-07T14:55:14.899Z,50.70
2019-05-07T14:56:14.858Z,51.23
2019-05-07T14:57:14.862Z,52.83
2019-05-07T14:58:14.834Z,54.63
2019-05-07T14:59:14.818Z,54.41
2019-05-07T15:00:14.805Z,54.10
2019-05-07T15:01:14.795Z,55.73
2019-05-07T15:02:14.815Z,55.53
2019-05-07T15:03:14.768Z,56.30
2019-05-07T15:04:14.753Z,56.94
2019-05-07T15:05:14.746Z,57.23
2019-05-07T15:06:14.728Z,58.50
2019-05-07T15:07:14.712Z,58.31
2019-05-07T15:08:14.755Z,59.55
2019-05-07T15:09:14.686Z,60.61
2019-05-07T15:10:14.671Z,61.54
2019-05-07T15:11:14.655Z,61.79
2019-05-07T15:12:15.003Z,61.98
2019-05-07T15:13:14.638Z,62.04
2019-05-07T15:14:14.612Z,62.33
2019-05-07T15:15:14.604Z,63.96
2019-05-07T15:16:14.585Z,63.70
2019-05-07T15:17:14.569Z,64.82
2019-05-07T15:18:15.823Z,64.15
2019-05-07T15:19:14.571Z,64.09
2019-05-07T15:20:17.491Z,64.28
2019-05-07T15:21:14.532Z,63.60
2019-05-07T15:22:14.515Z,63.32
2019-05-07T15:23:14.495Z,62.46
2019-05-07T15:24:14.463Z,62.17
2019-05-07T15:25:14.447Z,62.14
2019-05-07T15:26:14.436Z,61.88
2019-05-07T15:27:14.416Z,61.66
2019-05-07T15:28:14.420Z,62.52
2019-05-07T15:29:14.386Z,62.33
2019-05-07T15:30:14.370Z,62.90
2019-05-07T15:31:14.356Z,63.89
2019-05-07T15:32:14.340Z,63.80
2019-05-07T15:33:14.321Z,63.70
2019-05-07T15:34:14.339Z,63.29
2019-05-07T15:35:14.293Z,63.29
2019-05-07T15:36:14.276Z,63.96
2019-05-07T15:37:14.262Z,64.09
2019-05-07T15:38:14.246Z,63.51
2019-05-07T15:39:14.242Z,63.80
2019-05-07T15:40:14.211Z,64.18
2019-05-07T15:41:14.195Z,64.09
2019-05-07T15:42:14.180Z,62.65
2019-05-07T15:43:14.165Z,63.13
2019-05-07T15:44:14.161Z,63.13
2019-05-07T15:45:14.134Z,63.89
2019-05-07T15:46:14.114Z,64.56
2019-05-07T15:47:14.100Z,64.66
2019-05-07T15:48:14.094Z,66.00
2019-05-07T15:49:14.086Z,65.14
2019-05-07T15:50:14.055Z,63.99
2019-05-07T15:51:16.686Z,64.18
2019-05-07T15:52:14.019Z,63.32
2019-05-07T15:53:14.003Z,62.55
2019-05-07T15:54:13.988Z,61.88
2019-05-07T15:55:14.011Z,62.59
2019-05-07T15:56:13.955Z,62.59
2019-05-07T15:57:13.940Z,62.23
2019-05-07T15:58:13.921Z,61.18
2019-05-07T15:59:13.907Z,60.99
2019-05-07T16:00:13.890Z,61.50
2019-05-07T16:01:13.888Z,60.64
2019-05-07T16:02:13.859Z,60.93
2019-05-07T16:03:13.859Z,60.67
2019-05-07T16:04:22.350Z,58.81
2019-05-07T16:05:13.813Z,58.37
2019-05-07T16:06:13.833Z,57.98
2019-05-07T16:07:13.785Z,57.63
2019-05-07T16:08:13.770Z,57.43
2019-05-07T16:09:13.752Z,56.19
2019-05-07T16:10:15.153Z,55.96
2019-05-07T16:11:13.729Z,55.27
2019-05-07T16:12:13.724Z,53.25
2019-05-07T16:13:13.830Z,52.53
2019-05-07T16:14:14.667Z,54.30
2019-05-07T16:15:13.932Z,54.61
2019-05-07T16:16:13.660Z,55.35
2019-05-07T16:17:13.657Z,57.15
2019-05-07T16:18:13.628Z,56.64
2019-05-07T16:19:13.620Z,58.34
2019-05-07T16:20:14.255Z,59.58
2019-05-07T16:21:13.590Z,59.48
2019-05-07T16:22:13.602Z,58.31
2019-05-07T16:23:17.327Z,60.51
2019-05-07T16:24:13.550Z,60.99
2019-05-07T16:25:13.538Z,61.76
2019-05-07T16:26:13.522Z,61.05
2019-05-07T16:27:13.524Z,60.96
2019-05-07T16:28:13.513Z,60.48
2019-05-07T16:29:13.600Z,60.58
2019-05-07T16:30:14.263Z,62.97
2019-05-07T16:31:13.453Z,61.82
2019-05-07T16:32:13.461Z,62.01
2019-05-07T16:33:13.425Z,62.30
2019-05-07T16:34:13.416Z,62.40
2019-05-07T16:35:16.045Z,62.11
2019-05-07T16:36:13.385Z,62.01
2019-05-07T16:37:13.366Z,62.01
2019-05-07T16:38:15.623Z,61.91
2019-05-07T16:39:13.338Z,61.05
2019-05-07T16:40:13.326Z,61.05
2019-05-07T16:41:13.586Z,62.01
2019-05-07T16:42:13.294Z,60.48
2019-05-07T16:43:13.278Z,61.34
2019-05-07T16:44:13.278Z,61.54
2019-05-07T16:45:13.348Z,60.51
2019-05-07T16:46:13.233Z,60.51
2019-05-07T16:47:13.219Z,60.22
2019-05-07T16:48:13.204Z,59.17
2019-05-07T16:49:13.203Z,59.27
2019-05-07T16:50:13.225Z,60.51
2019-05-07T16:51:13.160Z,59.87
2019-05-07T16:52:13.143Z,58.53
2019-05-07T16:53:25.814Z,59.39
2019-05-07T16:54:13.151Z,59.01
2019-05-07T16:55:13.098Z,59.20
2019-05-07T16:56:13.083Z,58.37
2019-05-07T16:57:13.068Z,56.70
2019-05-07T16:58:13.056Z,55.86
2019-05-07T16:59:13.044Z,54.42
2019-05-07T17:00:13.040Z,54.68
2019-05-07T17:01:13.013Z,55.26
2019-05-07T17:02:12.999Z,55.80
2019-05-07T17:03:12.983Z,55.42
2019-05-07T17:04:12.969Z,55.80
2019-05-07T17:05:12.969Z,56.29
2019-05-07T17:06:12.943Z,56.19
2019-05-07T17:07:13.316Z,57.01
2019-05-07T17:08:12.914Z,55.15
2019-05-07T17:09:13.511Z,52.65
2019-05-07T17:10:12.900Z,53.39
2019-05-07T17:11:12.873Z,55.19
2019-05-07T17:12:12.860Z,56.76
2019-05-07T17:13:12.849Z,56.29
2019-05-07T17:14:13.153Z,56.57
2019-05-07T17:15:12.822Z,58.46
2019-05-07T17:16:12.834Z,57.67
2019-05-07T17:17:12.796Z,58.66
2019-05-07T17:18:12.781Z,60.00
2019-05-07T17:19:12.768Z,62.20
2019-05-07T17:20:12.834Z,61.88
2019-05-07T17:21:12.755Z,62.17
2019-05-07T17:22:12.726Z,62.08
2019-05-07T17:23:12.713Z,62.55
2019-05-07T17:24:12.701Z,63.10
2019-05-07T17:25:13.130Z,63.76
2019-05-07T17:26:12.687Z,64.15
2019-05-07T17:27:12.656Z,63.86
2019-05-07T17:28:12.782Z,64.91
2019-05-07T17:29:12.627Z,64.53
2019-05-07T17:30:12.612Z,63.19
2019-05-07T17:31:12.617Z,62.94
2019-05-07T17:32:12.584Z,64.02
2019-05-07T17:33:12.945Z,62.30
2019-05-07T17:34:12.553Z,62.97
2019-05-07T17:35:12.963Z,63.32
2019-05-07T17:36:12.530Z,63.64
2019-05-07T17:37:12.709Z,61.82
2019-05-07T17:38:12.986Z,62.40
2019-05-07T17:39:12.480Z,62.40
2019-05-07T17:40:12.468Z,61.63
2019-05-07T17:41:20.081Z,61.15
2019-05-07T17:42:12.447Z,61.44
2019-05-07T17:43:12.434Z,61.31
2019-05-07T17:44:12.414Z,61.98
2019-05-07T17:45:12.387Z,63.99
2019-05-07T17:46:12.374Z,65.39
2019-05-07T17:47:12.816Z,65.01
2019-05-07T17:48:12.421Z,65.30
2019-05-07T17:49:12.330Z,64.98
2019-05-07T17:50:12.685Z,65.64
2019-05-07T17:51:12.487Z,66.60
2019-05-07T17:52:12.612Z,65.93
2019-05-07T17:53:12.265Z,65.93
2019-05-07T17:54:13.248Z,67.08
2019-05-07T17:55:13.086Z,67.94
2019-05-07T17:56:12.763Z,67.65
2019-05-07T17:57:13.473Z,67.55
2019-05-07T17:58:12.855Z,66.95
2019-05-07T17:59:12.434Z,67.62
2019-05-07T18:00:12.857Z,68.57
2019-05-07T18:01:12.134Z,68.29
2019-05-07T18:02:12.118Z,68.76
2019-05-07T18:03:13.112Z,69.72
2019-05-07T18:04:12.087Z,70.01
2019-05-07T18:05:12.070Z,70.01
2019-05-07T18:06:12.554Z,69.43
2019-05-07T18:07:12.240Z,70.39
2019-05-07T18:08:12.622Z,71.15
2019-05-07T18:09:12.246Z,71.82
2019-05-07T18:10:12.569Z,71.06
2019-05-07T18:11:20.876Z,70.96
2019-05-07T18:12:12.186Z,70.10
2019-05-07T18:13:12.022Z,70.01
2019-05-07T18:14:11.919Z,71.21
2019-05-07T18:15:12.655Z,70.26
2019-05-07T18:16:12.186Z,71.12
2019-05-07T18:17:12.556Z,71.98
2019-05-07T18:18:12.801Z,71.31
2019-05-07T18:19:12.609Z,71.59
2019-05-07T18:20:12.886Z,71.69
2019-05-07T18:21:12.634Z,71.41
2019-05-07T18:22:12.783Z,72.45
2019-05-07T18:23:16.613Z,73.60
2019-05-07T18:24:16.421Z,74.17
2019-05-07T18:25:12.435Z,74.65
2019-05-07T18:26:16.407Z,74.37
2019-05-07T18:27:12.581Z,75.18
2019-05-07T18:28:12.306Z,74.80
2019-05-07T18:29:11.999Z,74.99
2019-05-07T18:30:12.841Z,76.56
2019-05-07T18:31:12.581Z,75.85
2019-05-07T18:32:12.452Z,76.42
2019-05-07T18:33:11.616Z,76.81
2019-05-07T18:34:12.847Z,76.42
2019-05-07T18:35:12.625Z,77.38
2019-05-07T18:36:12.126Z,77.67
2019-05-07T18:37:12.606Z,77.67
2019-05-07T18:38:11.495Z,77.57
2019-05-07T18:39:11.489Z,78.43
2019-05-07T18:40:12.732Z,78.67
2019-05-07T18:41:12.203Z,78.67
2019-05-07T18:42:12.718Z,77.82
2019-05-07T18:43:12.276Z,77.82
2019-05-07T18:44:13.598Z,77.34
2019-05-07T18:45:12.431Z,77.44
2019-05-07T18:46:12.838Z,77.72
2019-05-07T18:47:12.882Z,78.58
2019-05-07T18:48:11.968Z,79.06
2019-05-07T18:49:12.832Z,79.25
2019-05-07T18:50:12.789Z,78.30
2019-05-07T18:51:12.197Z,78.86
2019-05-07T18:52:12.192Z,79.35
2019-05-07T18:53:12.215Z,79.53
2019-05-07T18:54:13.220Z,79.25
2019-05-07T18:55:12.033Z,79.35
2019-05-07T18:56:12.612Z,79.63
2019-05-07T18:57:11.145Z,79.35
2019-05-07T18:58:13.093Z,79.15
2019-05-07T18:59:11.110Z,79.91
2019-05-07T19:00:11.102Z,79.63
2019-05-07T19:01:11.088Z,79.82
2019-05-07T19:02:11.062Z,80.58
2019-05-07T19:03:11.033Z,80.64
2019-05-07T19:04:12.898Z,81.73
2019-05-07T19:05:12.965Z,81.49
2019-05-07T19:06:13.144Z,81.78
2019-05-07T19:07:13.039Z,82.07
2019-05-07T19:08:12.638Z,82.64
2019-05-07T19:09:10.926Z,83.40